createdAt,value
2017-08-10T00:00:00.956Z,0
2017-08-10T00:01:12.944Z,0
2017-08-10T00:02:25.453Z,0
2017-08-10T00:03:38.107Z,0
2017-08-10T00:04:50.096Z,0
2017-08-10T00:06:02.632Z,0
2017-08-10T00:07:14.951Z,0
2017-08-10T00:08:27.616Z,0
2017-08-10T00:09:40.163Z,0
2017-08-10T00:10:52.741Z,0
2017-08-10T00:12:05.607Z,0
2017-08-10T00:13:17.926Z,0
2017-08-10T00:14:30.531Z,0
2017-08-10T00:15:43.166Z,0
2017-08-10T00:16:55.791Z,0
2017-08-10T00:18:08.040Z,0
2017-08-10T00:19:20.029Z,0
2017-08-10T00:20:32.613Z,0
2017-08-10T00:21:45.225Z,0
2017-08-10T00:22:58.042Z,0
2017-08-10T00:24:10.624Z,0
2017-08-10T00:25:22.676Z,0
2017-08-10T00:26:35.280Z,0
2017-08-10T00:27:47.851Z,0
2017-08-10T00:29:00.477Z,0
2017-08-10T00:30:13.096Z,0
2017-08-10T00:31:25.418Z,0
2017-08-10T00:32:38.045Z,0
2017-08-10T00:33:50.614Z,0
2017-08-10T00:35:03.212Z,0
2017-08-10T00:36:15.832Z,0
2017-08-10T00:37:28.171Z,0
2017-08-10T00:38:40.749Z,0
2017-08-10T00:39:52.966Z,0
2017-08-10T00:41:05.220Z,0
2017-08-10T00:42:17.852Z,0
2017-08-10T00:43:30.468Z,0
2017-08-10T00:44:43.073Z,0
2017-08-10T00:45:55.020Z,0
2017-08-10T00:47:07.608Z,0
2017-08-10T00:48:19.920Z,0
2017-08-10T00:49:32.494Z,0
2017-08-10T00:50:44.758Z,0
2017-08-10T00:51:57.100Z,0
2017-08-10T00:53:09.456Z,0
2017-08-10T00:54:21.718Z,0
2017-08-10T00:55:34.311Z,0
2017-08-10T00:56:46.276Z,0
2017-08-10T00:57:58.549Z,0
2017-08-10T00:59:10.819Z,0
2017-08-10T01:00:23.128Z,0
2017-08-10T01:01:35.745Z,0
2017-08-10T01:02:48.089Z,0
2017-08-10T01:04:00.078Z,0
2017-08-10T01:05:12.349Z,0
2017-08-10T01:06:24.922Z,0
2017-08-10T01:07:37.251Z,0
2017-08-10T01:08:49.936Z,0
2017-08-10T01:10:01.867Z,0
2017-08-10T01:11:14.085Z,0
2017-08-10T01:12:26.091Z,0
2017-08-10T01:13:38.695Z,0
2017-08-10T01:14:50.952Z,0
2017-08-10T01:16:03.564Z,0
2017-08-10T01:17:15.544Z,0
2017-08-10T01:18:27.888Z,0
2017-08-10T01:19:40.177Z,0
2017-08-10T01:20:52.778Z,0
2017-08-10T01:22:05.351Z,0
2017-08-10T01:23:17.621Z,0
2017-08-10T01:24:29.639Z,0
2017-08-10T01:25:41.927Z,0
2017-08-10T01:26:53.926Z,0
2017-08-10T01:28:05.899Z,0
2017-08-10T01:29:17.868Z,0
2017-08-10T01:30:29.899Z,0
2017-08-10T01:31:42.483Z,0
2017-08-10T01:32:54.783Z,0
2017-08-10T01:34:07.318Z,0
2017-08-10T01:35:19.946Z,0
2017-08-10T01:36:32.156Z,0
2017-08-10T01:37:44.495Z,0
2017-08-10T01:38:56.437Z,0
2017-08-10T01:40:08.731Z,0
2017-08-10T01:41:20.981Z,0
2017-08-10T01:42:33.311Z,0
2017-08-10T01:43:45.636Z,0
2017-08-10T01:44:57.863Z,0
2017-08-10T01:46:10.134Z,0
2017-08-10T01:47:22.756Z,0
2017-08-10T01:48:35.316Z,0
2017-08-10T01:49:47.860Z,0
2017-08-10T01:51:00.211Z,0
2017-08-10T01:52:12.807Z,0
2017-08-10T01:53:25.405Z,0
2017-08-10T01:54:37.400Z,0
2017-08-10T01:55:49.978Z,0
2017-08-10T01:57:02.523Z,0
2017-08-10T01:58:15.199Z,0
2017-08-10T01:59:27.208Z,0
2017-08-10T02:00:39.517Z,0
2017-08-10T02:01:51.518Z,0
2017-08-10T02:03:03.815Z,0
2017-08-10T02:04:16.099Z,0
2017-08-10T02:05:28.694Z,0
2017-08-10T02:06:40.939Z,0
2017-08-10T02:07:53.242Z,0
2017-08-10T02:09:05.882Z,0
2017-08-10T02:10:18.179Z,0
2017-08-10T02:11:30.701Z,0
2017-08-10T02:12:43.231Z,0
2017-08-10T02:13:55.594Z,0
2017-08-10T02:15:07.852Z,0
2017-08-10T02:16:20.420Z,0
2017-08-10T02:17:32.984Z,0
2017-08-10T02:18:45.342Z,0
2017-08-10T02:19:57.921Z,0
2017-08-10T02:21:10.247Z,0
2017-08-10T02:22:22.925Z,0
2017-08-10T02:23:35.489Z,0
2017-08-10T02:24:48.111Z,0
2017-08-10T02:26:00.435Z,0
2017-08-10T02:27:12.764Z,0
2017-08-10T02:28:25.335Z,0
2017-08-10T02:29:37.589Z,0
2017-08-10T02:30:50.162Z,0
2017-08-10T02:32:02.111Z,0
2017-08-10T02:33:14.977Z,0
2017-08-10T02:34:26.929Z,0
2017-08-10T02:35:39.479Z,0
2017-08-10T02:36:51.762Z,0
2017-08-10T02:38:03.713Z,0
2017-08-10T02:39:15.060Z,0
2017-08-10T02:40:27.301Z,0
2017-08-10T02:41:39.909Z,0
2017-08-10T02:42:52.535Z,0
2017-08-10T02:44:04.856Z,0
2017-08-10T02:45:16.886Z,0
2017-08-10T02:46:29.485Z,0
2017-08-10T02:47:42.101Z,0
2017-08-10T02:48:54.415Z,0
2017-08-10T02:50:07.052Z,0
2017-08-10T02:51:19.064Z,0
2017-08-10T02:52:31.685Z,0
2017-08-10T02:53:43.983Z,0
2017-08-10T02:54:56.263Z,0
2017-08-10T02:56:08.872Z,0
2017-08-10T02:57:20.797Z,0
2017-08-10T02:58:33.146Z,0
2017-08-10T02:59:45.411Z,0
2017-08-10T03:00:57.707Z,0
2017-08-10T03:02:09.951Z,0
2017-08-10T03:03:22.605Z,0
2017-08-10T03:04:34.822Z,0
2017-08-10T03:05:47.394Z,0
2017-08-10T03:06:59.977Z,0
2017-08-10T03:08:12.239Z,0
2017-08-10T03:09:24.514Z,0
2017-08-10T03:10:37.113Z,0
2017-08-10T03:11:49.482Z,0
2017-08-10T03:13:01.766Z,4
2017-08-10T03:14:13.479Z,4
2017-08-10T03:15:26.119Z,4
2017-08-10T03:16:38.152Z,4
2017-08-10T03:17:50.791Z,4
2017-08-10T03:19:03.394Z,8
2017-08-10T03:20:15.648Z,8
2017-08-10T03:21:28.238Z,8
2017-08-10T03:22:40.811Z,12
2017-08-10T03:23:53.429Z,12
2017-08-10T03:25:05.993Z,16
2017-08-10T03:26:18.271Z,16
2017-08-10T03:27:30.556Z,20
2017-08-10T03:28:42.594Z,20
2017-08-10T03:29:54.616Z,24
2017-08-10T03:31:07.205Z,28
2017-08-10T03:32:19.782Z,32
2017-08-10T03:33:32.387Z,40
2017-08-10T03:34:44.966Z,48
2017-08-10T03:35:57.219Z,60
2017-08-10T03:37:09.883Z,72
2017-08-10T03:38:22.537Z,84
2017-08-10T03:39:35.150Z,96
2017-08-10T03:40:47.771Z,112
2017-08-10T03:42:00.066Z,128
2017-08-10T03:43:12.338Z,152
2017-08-10T03:44:24.634Z,172
2017-08-10T03:45:37.234Z,196
2017-08-10T03:46:49.813Z,216
2017-08-10T03:48:02.130Z,244
2017-08-10T03:49:14.721Z,284
2017-08-10T03:50:27.313Z,340
2017-08-10T03:51:39.337Z,412
2017-08-10T03:52:51.906Z,480
2017-08-10T03:54:04.554Z,528
2017-08-10T03:55:17.102Z,564
2017-08-10T03:56:29.721Z,584
2017-08-10T03:57:42.250Z,592
2017-08-10T03:58:54.237Z,592
2017-08-10T04:00:06.189Z,592
2017-08-10T04:01:18.477Z,596
2017-08-10T04:02:30.728Z,600
2017-08-10T04:03:42.730Z,628
2017-08-10T04:04:55.290Z,724
2017-08-10T04:06:07.943Z,896
2017-08-10T04:07:19.936Z,1004
2017-08-10T04:08:31.910Z,1096
2017-08-10T04:09:44.458Z,1188
2017-08-10T04:10:56.794Z,1268
2017-08-10T04:12:09.015Z,1344
2017-08-10T04:13:21.322Z,1400
2017-08-10T04:14:33.987Z,1428
2017-08-10T04:15:46.291Z,1436
2017-08-10T04:16:58.855Z,1384
2017-08-10T04:18:11.192Z,1252
2017-08-10T04:19:23.423Z,1116
2017-08-10T04:20:35.438Z,1044
2017-08-10T04:21:47.793Z,1028
2017-08-10T04:23:00.361Z,1068
2017-08-10T04:24:12.911Z,1128
2017-08-10T04:25:25.229Z,1224
2017-08-10T04:26:37.466Z,1360
2017-08-10T04:27:49.977Z,1500
2017-08-10T04:29:02.594Z,1616
2017-08-10T04:30:14.906Z,1684
2017-08-10T04:31:27.476Z,1676
2017-08-10T04:32:40.046Z,1584
2017-08-10T04:33:52.618Z,1544
2017-08-10T04:35:04.929Z,1496
2017-08-10T04:36:17.490Z,1444
2017-08-10T04:37:30.128Z,1400
2017-08-10T04:38:42.712Z,1380
2017-08-10T04:39:55.287Z,1368
2017-08-10T04:41:07.650Z,1356
2017-08-10T04:42:20.249Z,1344
2017-08-10T04:43:32.843Z,1352
2017-08-10T04:44:45.211Z,1368
2017-08-10T04:45:57.782Z,1392
2017-08-10T04:47:10.426Z,1436
2017-08-10T04:48:22.653Z,1488
2017-08-10T04:49:35.189Z,1564
2017-08-10T04:50:47.227Z,1668
2017-08-10T04:51:59.488Z,1800
2017-08-10T04:53:11.465Z,1960
2017-08-10T04:54:23.778Z,2092
2017-08-10T04:55:36.082Z,2228
2017-08-10T04:56:48.400Z,2392
2017-08-10T04:58:01.020Z,2572
2017-08-10T04:59:13.006Z,2724
2017-08-10T05:00:25.595Z,2868
2017-08-10T05:01:37.548Z,3020
2017-08-10T05:02:50.127Z,3132
2017-08-10T05:04:02.687Z,3148
2017-08-10T05:05:14.611Z,3052
2017-08-10T05:06:27.175Z,3004
2017-08-10T05:07:39.777Z,3144
2017-08-10T05:08:51.700Z,3300
2017-08-10T05:10:04.047Z,3376
2017-08-10T05:11:16.002Z,3424
2017-08-10T05:12:28.594Z,3504
2017-08-10T05:13:41.258Z,3544
2017-08-10T05:14:53.809Z,3648
2017-08-10T05:16:06.105Z,3716
2017-08-10T05:17:18.398Z,3656
2017-08-10T05:18:30.967Z,3452
2017-08-10T05:19:43.512Z,3136
2017-08-10T05:20:56.188Z,2928
2017-08-10T05:22:07.828Z,2852
2017-08-10T05:23:20.401Z,2904
2017-08-10T05:24:32.662Z,3036
2017-08-10T05:25:45.309Z,3216
2017-08-10T05:26:57.680Z,3352
2017-08-10T05:28:10.259Z,3456
2017-08-10T05:29:22.861Z,3528
2017-08-10T05:30:35.157Z,3568
2017-08-10T05:31:47.782Z,3568
2017-08-10T05:33:00.665Z,3600
2017-08-10T05:34:12.631Z,3772
2017-08-10T05:35:25.210Z,4060
2017-08-10T05:36:37.873Z,4284
2017-08-10T05:37:50.179Z,4340
2017-08-10T05:39:02.497Z,4316
2017-08-10T05:40:14.443Z,4212
2017-08-10T05:41:27.019Z,4004
2017-08-10T05:42:39.631Z,3684
2017-08-10T05:43:51.923Z,3420
2017-08-10T05:45:04.484Z,3404
2017-08-10T05:46:16.445Z,3816
2017-08-10T05:47:29.117Z,4688
2017-08-10T05:48:41.425Z,6052
2017-08-10T05:49:54.067Z,7720
2017-08-10T05:51:06.705Z,8832
2017-08-10T05:52:19.253Z,9180
2017-08-10T05:53:31.761Z,8892
2017-08-10T05:54:44.394Z,8580
2017-08-10T05:55:56.946Z,8484
2017-08-10T05:57:09.289Z,8636
2017-08-10T05:58:21.862Z,8792
2017-08-10T05:59:34.457Z,8760
2017-08-10T06:00:46.734Z,8680
2017-08-10T06:01:59.301Z,8580
2017-08-10T06:03:11.540Z,8452
2017-08-10T06:04:23.862Z,8244
2017-08-10T06:05:36.149Z,8004
2017-08-10T06:06:48.403Z,7844
2017-08-10T06:08:01.048Z,7784
2017-08-10T06:09:13.633Z,7740
2017-08-10T06:10:26.198Z,7664
2017-08-10T06:11:38.821Z,7584
2017-08-10T06:12:51.438Z,7632
2017-08-10T06:14:04.081Z,7680
2017-08-10T06:15:16.048Z,7624
2017-08-10T06:16:28.368Z,7436
2017-08-10T06:17:41.010Z,7288
2017-08-10T06:18:53.590Z,7244
2017-08-10T06:20:06.088Z,7328
2017-08-10T06:21:18.289Z,7548
2017-08-10T06:22:30.599Z,7884
2017-08-10T06:23:43.208Z,8244
2017-08-10T06:24:55.728Z,8536
2017-08-10T06:26:07.730Z,8772
2017-08-10T06:27:20.295Z,9004
2017-08-10T06:28:32.629Z,9176
2017-08-10T06:29:44.929Z,9356
2017-08-10T06:30:57.529Z,9648
2017-08-10T06:32:09.492Z,9960
2017-08-10T06:33:21.723Z,10196
2017-08-10T06:34:34.087Z,10376
2017-08-10T06:35:46.680Z,10772
2017-08-10T06:36:59.326Z,11268
2017-08-10T06:38:11.875Z,11700
2017-08-10T06:39:24.485Z,11780
2017-08-10T06:40:36.526Z,11640
2017-08-10T06:41:49.133Z,11168
2017-08-10T06:43:01.747Z,10596
2017-08-10T06:44:14.005Z,10336
2017-08-10T06:45:26.602Z,10576
2017-08-10T06:46:39.179Z,11044
2017-08-10T06:47:51.739Z,11584
2017-08-10T06:49:04.378Z,12316
2017-08-10T06:50:16.682Z,12836
2017-08-10T06:51:28.928Z,12772
2017-08-10T06:52:41.548Z,12620
2017-08-10T06:53:53.803Z,13184
2017-08-10T06:55:06.444Z,14564
2017-08-10T06:56:18.438Z,16480
2017-08-10T06:57:31.062Z,18080
2017-08-10T06:58:43.328Z,18720
2017-08-10T06:59:55.273Z,19584
2017-08-10T07:01:07.825Z,20736
2017-08-10T07:02:20.198Z,20768
2017-08-10T07:03:32.467Z,20704
2017-08-10T07:04:45.044Z,19360
2017-08-10T07:05:57.004Z,17760
2017-08-10T07:07:09.573Z,15428
2017-08-10T07:08:22.145Z,13500
2017-08-10T07:09:34.722Z,12420
2017-08-10T07:10:46.998Z,11676
2017-08-10T07:11:59.294Z,10916
2017-08-10T07:13:11.903Z,10940
2017-08-10T07:14:24.255Z,11644
2017-08-10T07:15:36.533Z,12280
2017-08-10T07:16:49.215Z,11944
2017-08-10T07:18:01.835Z,11996
2017-08-10T07:19:12.936Z,12644
2017-08-10T07:20:25.565Z,13328
2017-08-10T07:21:37.861Z,14240
2017-08-10T07:22:50.524Z,15220
2017-08-10T07:24:02.820Z,15556
2017-08-10T07:25:15.411Z,16000
2017-08-10T07:26:27.695Z,16832
2017-08-10T07:27:40.323Z,16936
2017-08-10T07:28:52.911Z,19008
2017-08-10T07:30:05.578Z,20736
2017-08-10T07:31:18.168Z,20224
2017-08-10T07:32:30.737Z,16888
2017-08-10T07:33:43.357Z,13672
2017-08-10T07:34:56.026Z,12116
2017-08-10T07:36:07.712Z,11468
2017-08-10T07:37:20.022Z,11240
2017-08-10T07:38:31.984Z,11372
2017-08-10T07:39:44.215Z,11768
2017-08-10T07:40:56.784Z,12192
2017-08-10T07:42:09.036Z,13080
2017-08-10T07:43:21.032Z,14688
2017-08-10T07:44:33.657Z,15444
2017-08-10T07:45:45.969Z,15768
2017-08-10T07:46:58.514Z,15932
2017-08-10T07:48:10.192Z,16152
2017-08-10T07:49:22.784Z,15828
2017-08-10T07:50:35.353Z,15316
2017-08-10T07:51:47.663Z,14984
2017-08-10T07:52:59.972Z,15784
2017-08-10T07:54:12.563Z,18560
2017-08-10T07:55:25.122Z,20896
2017-08-10T07:56:37.480Z,22624
2017-08-10T07:57:49.475Z,26688
2017-08-10T07:59:02.105Z,30240
2017-08-10T08:00:14.451Z,32704
2017-08-10T08:01:26.790Z,34592
2017-08-10T08:02:39.105Z,36384
2017-08-10T08:03:51.399Z,37472
2017-08-10T08:05:03.952Z,38432
2017-08-10T08:06:16.272Z,38816
2017-08-10T08:07:28.630Z,38016
2017-08-10T08:08:41.215Z,33568
2017-08-10T08:09:53.548Z,27872
2017-08-10T08:11:06.126Z,25216
2017-08-10T08:12:18.678Z,23680
2017-08-10T08:13:31.250Z,22176
2017-08-10T08:14:43.880Z,20640
2017-08-10T08:15:55.852Z,20160
2017-08-10T08:17:08.462Z,20608
2017-08-10T08:18:20.696Z,21088
2017-08-10T08:19:32.957Z,20864
2017-08-10T08:20:45.511Z,20832
2017-08-10T08:21:58.107Z,20576
2017-08-10T08:23:10.171Z,20352
2017-08-10T08:24:22.749Z,20864
2017-08-10T08:25:35.033Z,22528
2017-08-10T08:26:47.654Z,24480
2017-08-10T08:28:00.324Z,25664
2017-08-10T08:29:12.896Z,25216
2017-08-10T08:30:25.468Z,23424
2017-08-10T08:31:37.726Z,21824
2017-08-10T08:32:50.384Z,20416
2017-08-10T08:34:02.928Z,19552
2017-08-10T08:35:14.928Z,19488
2017-08-10T08:36:27.574Z,20704
2017-08-10T08:37:40.152Z,23200
2017-08-10T08:38:52.464Z,25664
2017-08-10T08:40:05.032Z,27872
2017-08-10T08:41:17.379Z,29344
2017-08-10T08:42:29.987Z,29472
2017-08-10T08:43:42.634Z,28832
2017-08-10T08:44:55.268Z,28032
2017-08-10T08:46:07.820Z,27488
2017-08-10T08:47:20.446Z,27424
2017-08-10T08:48:33.032Z,27168
2017-08-10T08:49:45.389Z,26240
2017-08-10T08:50:57.984Z,25312
2017-08-10T08:52:10.657Z,24608
2017-08-10T08:53:22.616Z,24064
2017-08-10T08:54:34.617Z,23072
2017-08-10T08:55:46.937Z,21792
2017-08-10T08:56:58.913Z,20992
2017-08-10T08:58:11.222Z,20320
2017-08-10T08:59:23.858Z,19296
2017-08-10T09:00:36.126Z,18880
2017-08-10T09:01:48.360Z,19232
2017-08-10T09:03:00.934Z,19680
2017-08-10T09:04:13.485Z,20928
2017-08-10T09:05:26.110Z,23072
2017-08-10T09:06:38.725Z,25408
2017-08-10T09:07:51.072Z,27072
2017-08-10T09:09:03.635Z,27360
2017-08-10T09:10:15.907Z,26688
2017-08-10T09:11:28.153Z,26112
2017-08-10T09:12:40.759Z,25984
2017-08-10T09:13:53.321Z,26208
2017-08-10T09:15:05.266Z,26304
2017-08-10T09:16:17.513Z,27104
2017-08-10T09:17:30.099Z,28608
2017-08-10T09:18:42.329Z,30752
2017-08-10T09:19:54.874Z,33152
2017-08-10T09:21:06.885Z,34464
2017-08-10T09:22:18.823Z,33376
2017-08-10T09:23:31.462Z,30368
2017-08-10T09:24:43.690Z,27424
2017-08-10T09:25:56.246Z,26016
2017-08-10T09:27:08.454Z,26080
2017-08-10T09:28:20.783Z,27264
2017-08-10T09:29:33.128Z,29088
2017-08-10T09:30:45.458Z,31200
2017-08-10T09:31:58.033Z,34560
2017-08-10T09:33:10.361Z,38144
2017-08-10T09:34:22.367Z,40672
2017-08-10T09:35:34.722Z,41856
2017-08-10T09:36:47.017Z,41760
2017-08-10T09:37:58.993Z,41280
2017-08-10T09:39:11.566Z,40800
2017-08-10T09:40:24.168Z,39392
2017-08-10T09:41:36.534Z,36224
2017-08-10T09:42:49.109Z,33440
2017-08-10T09:44:01.427Z,32128
2017-08-10T09:45:13.732Z,32096
2017-08-10T09:46:25.696Z,32384
2017-08-10T09:47:37.987Z,33536
2017-08-10T09:48:50.326Z,34368
2017-08-10T09:50:02.596Z,35072
2017-08-10T09:51:14.275Z,34784
2017-08-10T09:52:26.539Z,33504
2017-08-10T09:53:39.059Z,31552
2017-08-10T09:54:51.387Z,29312
2017-08-10T09:56:03.976Z,27648
2017-08-10T09:57:16.591Z,28992
2017-08-10T09:58:29.155Z,38176
2017-08-10T09:59:40.864Z,33632
2017-08-10T10:00:53.410Z,51328
2017-08-10T10:02:05.989Z,48384
2017-08-10T10:03:18.278Z,24640
2017-08-10T10:04:30.553Z,38560
2017-08-10T10:05:42.600Z,74912
2017-08-10T10:06:55.191Z,76000
2017-08-10T10:08:07.193Z,35872
2017-08-10T10:09:19.809Z,33056
2017-08-10T10:10:32.440Z,25408
2017-08-10T10:11:44.422Z,39040
2017-08-10T10:12:56.730Z,51840
2017-08-10T10:14:09.047Z,47520
2017-08-10T10:15:21.660Z,32928
2017-08-10T10:16:34.289Z,28768
2017-08-10T10:17:46.885Z,41728
2017-08-10T10:18:59.186Z,61184
2017-08-10T10:20:11.874Z,69120
2017-08-10T10:21:24.495Z,83360
2017-08-10T10:22:36.764Z,86848
2017-08-10T10:23:49.358Z,47776
2017-08-10T10:25:01.615Z,84352
2017-08-10T10:26:14.192Z,63136
2017-08-10T10:27:26.221Z,75840
2017-08-10T10:28:38.841Z,77408
2017-08-10T10:29:51.087Z,59232
2017-08-10T10:31:03.401Z,58080
2017-08-10T10:32:15.735Z,58816
2017-08-10T10:33:28.011Z,56640
2017-08-10T10:34:40.634Z,51232
2017-08-10T10:35:52.652Z,58208
2017-08-10T10:37:04.641Z,62944
2017-08-10T10:38:16.684Z,55840
2017-08-10T10:39:29.003Z,57536
2017-08-10T10:40:41.036Z,50752
2017-08-10T10:41:53.664Z,66048
2017-08-10T10:43:05.958Z,39680
2017-08-10T10:44:18.281Z,68512
2017-08-10T10:45:30.919Z,73984
2017-08-10T10:46:43.259Z,75136
2017-08-10T10:47:55.550Z,75616
2017-08-10T10:49:07.797Z,73760
2017-08-10T10:50:20.423Z,73248
2017-08-10T10:51:32.792Z,73568
2017-08-10T10:52:45.091Z,70464
2017-08-10T10:53:57.138Z,69056
2017-08-10T10:55:09.427Z,68896
2017-08-10T10:56:21.099Z,70176
2017-08-10T10:57:33.371Z,70816
2017-08-10T10:58:45.691Z,72640
2017-08-10T10:59:58.022Z,69056
2017-08-10T11:01:10.662Z,67776
2017-08-10T11:02:23.250Z,70144
2017-08-10T11:03:35.465Z,70240
2017-08-10T11:04:48.101Z,68960
2017-08-10T11:06:00.471Z,67456
2017-08-10T11:07:12.487Z,68960
2017-08-10T11:08:24.157Z,68352
2017-08-10T11:09:36.470Z,68352
2017-08-10T11:10:48.457Z,69600
2017-08-10T11:12:00.772Z,70976
2017-08-10T11:13:13.354Z,69920
2017-08-10T11:14:25.398Z,68768
2017-08-10T11:15:37.100Z,71424
2017-08-10T11:16:49.403Z,46912
2017-08-10T11:18:02.059Z,53472
2017-08-10T11:19:14.075Z,62176
2017-08-10T11:20:26.391Z,65568
2017-08-10T11:21:38.971Z,58240
2017-08-10T11:22:50.990Z,73088
2017-08-10T11:24:02.704Z,73344
2017-08-10T11:25:15.368Z,59936
2017-08-10T11:26:27.947Z,77344
2017-08-10T11:27:40.623Z,60832
2017-08-10T11:28:52.981Z,53728
2017-08-10T11:30:05.277Z,68192
2017-08-10T11:31:17.880Z,80416
2017-08-10T11:32:29.898Z,78560
2017-08-10T11:33:42.527Z,56448
2017-08-10T11:34:55.148Z,36640
2017-08-10T11:36:07.474Z,57824
2017-08-10T11:37:19.185Z,79040
2017-08-10T11:38:31.456Z,71552
2017-08-10T11:39:43.707Z,51680
2017-08-10T11:40:56.312Z,50912
2017-08-10T11:42:08.918Z,45280
2017-08-10T11:43:21.506Z,71648
2017-08-10T11:44:33.621Z,60352
2017-08-10T11:45:46.033Z,77408
2017-08-10T11:46:58.338Z,45120
2017-08-10T11:48:10.660Z,34816
2017-08-10T11:49:23.009Z,26208
2017-08-10T11:50:35.321Z,26336
2017-08-10T11:51:47.995Z,20096
2017-08-10T11:53:00.607Z,21888
2017-08-10T11:54:13.270Z,23648
2017-08-10T11:55:25.873Z,71104
2017-08-10T11:56:37.856Z,64512
2017-08-10T11:57:50.520Z,29856
2017-08-10T11:59:03.150Z,68416
2017-08-10T12:00:15.439Z,67552
2017-08-10T12:01:27.729Z,64768
2017-08-10T12:02:40.298Z,61728
2017-08-10T12:03:52.987Z,65568
2017-08-10T12:05:04.988Z,61440
2017-08-10T12:06:17.211Z,61184
2017-08-10T12:07:29.218Z,63264
2017-08-10T12:08:41.854Z,60480
2017-08-10T12:09:54.524Z,59936
2017-08-10T12:11:06.577Z,60416
2017-08-10T12:12:18.864Z,62944
2017-08-10T12:13:31.484Z,43104
2017-08-10T12:14:43.768Z,57536
2017-08-10T12:15:55.499Z,65344
2017-08-10T12:17:07.486Z,70144
2017-08-10T12:18:20.129Z,55680
2017-08-10T12:19:32.421Z,59712
2017-08-10T12:20:45.048Z,62880
2017-08-10T12:21:57.415Z,55968
2017-08-10T12:23:10.053Z,53664
2017-08-10T12:24:22.402Z,51424
2017-08-10T12:25:34.405Z,55328
2017-08-10T12:26:46.742Z,55904
2017-08-10T12:27:59.316Z,41824
2017-08-10T12:29:11.909Z,36864
2017-08-10T12:30:23.860Z,50336
2017-08-10T12:31:36.105Z,59136
2017-08-10T12:32:48.083Z,55392
2017-08-10T12:34:00.409Z,51872
2017-08-10T12:35:12.414Z,58432
2017-08-10T12:36:24.389Z,57696
2017-08-10T12:37:36.967Z,47200
2017-08-10T12:38:48.999Z,49792
2017-08-10T12:40:01.671Z,40000
2017-08-10T12:41:14.236Z,48800
2017-08-10T12:42:26.865Z,57888
2017-08-10T12:43:39.110Z,35040
2017-08-10T12:44:51.756Z,47264
2017-08-10T12:46:04.368Z,34208
2017-08-10T12:47:16.372Z,50432
2017-08-10T12:48:28.371Z,58112
2017-08-10T12:49:40.651Z,38912
2017-08-10T12:50:53.211Z,43200
2017-08-10T12:52:05.537Z,37120
2017-08-10T12:53:17.880Z,37856
2017-08-10T12:54:30.230Z,51488
2017-08-10T12:55:42.522Z,43232
2017-08-10T12:56:54.788Z,24928
2017-08-10T12:58:07.478Z,26784
2017-08-10T12:59:19.806Z,25920
2017-08-10T13:00:32.413Z,25568
2017-08-10T13:01:45.015Z,44512
2017-08-10T13:02:57.377Z,56992
2017-08-10T13:04:09.941Z,59904
2017-08-10T13:05:22.528Z,58368
2017-08-10T13:06:34.807Z,56928
2017-08-10T13:07:47.112Z,30016
2017-08-10T13:08:59.450Z,29024
2017-08-10T13:10:11.421Z,27776
2017-08-10T13:11:23.392Z,29280
2017-08-10T13:12:35.723Z,40576
2017-08-10T13:13:47.757Z,37920
2017-08-10T13:15:00.335Z,21248
2017-08-10T13:16:12.074Z,18848
2017-08-10T13:17:24.052Z,22176
2017-08-10T13:18:36.321Z,25824
2017-08-10T13:19:48.330Z,35136
2017-08-10T13:21:00.675Z,26848
2017-08-10T13:22:12.979Z,39680
2017-08-10T13:23:25.356Z,40960
2017-08-10T13:24:37.682Z,46624
2017-08-10T13:25:49.678Z,24448
2017-08-10T13:27:01.637Z,25376
2017-08-10T13:28:13.959Z,26240
2017-08-10T13:29:26.229Z,39744
2017-08-10T13:30:38.506Z,48544
2017-08-10T13:31:51.072Z,31008
2017-08-10T13:33:03.602Z,27360
2017-08-10T13:34:15.570Z,26976
2017-08-10T13:35:27.840Z,31040
2017-08-10T13:36:39.810Z,33632
2017-08-10T13:37:52.186Z,35072
2017-08-10T13:39:04.497Z,22656
2017-08-10T13:40:16.808Z,41632
2017-08-10T13:41:29.096Z,18848
2017-08-10T13:42:41.395Z,16512
2017-08-10T13:43:53.438Z,40608
2017-08-10T13:45:06.003Z,26528
2017-08-10T13:46:18.573Z,25440
2017-08-10T13:47:30.823Z,46816
2017-08-10T13:48:43.395Z,49344
2017-08-10T13:49:56.053Z,41472
2017-08-10T13:51:08.068Z,32640
2017-08-10T13:52:20.674Z,32448
2017-08-10T13:53:33.324Z,31648
2017-08-10T13:54:45.382Z,25792
2017-08-10T13:55:58.021Z,27872
2017-08-10T13:57:10.343Z,23264
2017-08-10T13:58:22.957Z,19968
2017-08-10T13:59:35.529Z,19232
2017-08-10T14:00:47.785Z,21280
2017-08-10T14:02:00.492Z,19904
2017-08-10T14:03:12.802Z,18560
2017-08-10T14:04:24.487Z,16300
2017-08-10T14:05:36.807Z,14236
2017-08-10T14:06:49.432Z,13940
2017-08-10T14:08:02.056Z,13788
2017-08-10T14:09:14.393Z,13724
2017-08-10T14:10:26.377Z,13956
2017-08-10T14:11:38.444Z,16096
2017-08-10T14:12:51.094Z,20128
2017-08-10T14:14:03.379Z,20160
2017-08-10T14:15:16.003Z,30784
2017-08-10T14:16:28.596Z,17696
2017-08-10T14:17:41.268Z,17760
2017-08-10T14:18:53.589Z,17040
2017-08-10T14:20:06.215Z,16428
2017-08-10T14:21:18.522Z,14876
2017-08-10T14:22:30.474Z,14604
2017-08-10T14:23:42.473Z,16308
2017-08-10T14:24:54.841Z,18272
2017-08-10T14:26:07.486Z,18176
2017-08-10T14:27:19.475Z,19040
2017-08-10T14:28:32.056Z,14592
2017-08-10T14:29:43.991Z,13128
2017-08-10T14:30:56.582Z,13072
2017-08-10T14:32:09.191Z,13420
2017-08-10T14:33:21.788Z,13824
2017-08-10T14:34:34.413Z,14868
2017-08-10T14:35:46.687Z,18176
2017-08-10T14:36:59.317Z,15680
2017-08-10T14:38:11.053Z,16292
2017-08-10T14:39:23.646Z,17152
2017-08-10T14:40:36.312Z,17632
2017-08-10T14:41:48.621Z,17920
2017-08-10T14:43:00.912Z,16996
2017-08-10T14:44:13.538Z,15504
2017-08-10T14:45:25.836Z,14192
2017-08-10T14:46:38.220Z,12904
2017-08-10T14:47:50.500Z,12068
2017-08-10T14:49:03.132Z,12056
2017-08-10T14:50:15.123Z,12220
2017-08-10T14:51:27.724Z,12880
2017-08-10T14:52:40.383Z,13356
2017-08-10T14:53:52.676Z,13556
2017-08-10T14:55:05.313Z,13592
2017-08-10T14:56:17.914Z,13712
2017-08-10T14:57:30.537Z,13676
2017-08-10T14:58:42.230Z,13576
2017-08-10T14:59:54.509Z,13620
2017-08-10T15:01:07.194Z,13388
2017-08-10T15:02:19.777Z,12836
2017-08-10T15:03:32.142Z,12180
2017-08-10T15:04:44.733Z,11728
2017-08-10T15:05:57.295Z,11212
2017-08-10T15:07:09.948Z,10788
2017-08-10T15:08:22.256Z,10596
2017-08-10T15:09:34.501Z,10284
2017-08-10T15:10:46.812Z,10048
2017-08-10T15:11:59.092Z,10096
2017-08-10T15:13:11.089Z,10432
2017-08-10T15:14:23.353Z,10932
2017-08-10T15:15:35.875Z,11288
2017-08-10T15:16:48.208Z,11528
2017-08-10T15:18:00.515Z,11752
2017-08-10T15:19:12.793Z,12068
2017-08-10T15:20:25.034Z,12220
2017-08-10T15:21:37.381Z,12308
2017-08-10T15:22:49.713Z,12356
2017-08-10T15:24:02.331Z,12488
2017-08-10T15:25:14.314Z,12768
2017-08-10T15:26:26.260Z,13100
2017-08-10T15:27:38.516Z,13316
2017-08-10T15:28:50.791Z,13372
2017-08-10T15:30:03.103Z,13280
2017-08-10T15:31:15.448Z,13276
2017-08-10T15:32:27.770Z,13372
2017-08-10T15:33:40.116Z,13536
2017-08-10T15:34:52.404Z,13832
2017-08-10T15:36:04.368Z,14128
2017-08-10T15:37:16.923Z,14392
2017-08-10T15:38:29.268Z,14588
2017-08-10T15:39:41.815Z,14728
2017-08-10T15:40:53.834Z,14632
2017-08-10T15:42:05.832Z,14608
2017-08-10T15:43:17.477Z,14692
2017-08-10T15:44:29.861Z,14596
2017-08-10T15:45:42.455Z,14304
2017-08-10T15:46:54.715Z,13964
2017-08-10T15:48:07.017Z,13600
2017-08-10T15:49:19.342Z,12992
2017-08-10T15:50:31.959Z,12392
2017-08-10T15:51:43.934Z,11812
2017-08-10T15:52:56.547Z,10984
2017-08-10T15:54:09.229Z,10480
2017-08-10T15:55:21.259Z,10492
2017-08-10T15:56:33.588Z,10352
2017-08-10T15:57:45.840Z,9952
2017-08-10T15:58:58.123Z,9488
2017-08-10T16:00:10.780Z,9312
2017-08-10T16:01:23.147Z,9044
2017-08-10T16:02:35.144Z,8604
2017-08-10T16:03:47.693Z,8964
2017-08-10T16:05:00.316Z,8632
2017-08-10T16:06:12.616Z,8156